NTAA/PPT METAR and TAF weather

Enter ICAO airport designator
Station Type Date Time Source
NTAA METAR 2022/06/30 14:00 UTC NOAA

NTAA 301400Z 12003KT 9999 FEW023 23/20 Q1016 NOSIG


Station Type Date Time Source
NTAA Decoded METAR 2022/06/30 14:00 UTC NOAA

Tahiti-Faaa, French Polynesia (NTAA) 17-33S 149-37W 2M
Jun 30, 2022 - 10:00 AM EDT / 2022.06.30 1400 UTC
Wind: from the ESE (120 degrees) at 3 MPH (3 KT):0
Visibility: greater than 7 mile(s):0
Sky conditions: mostly clear
Temperature: 73 F (23 C)
Dew Point: 68 F (20 C)
Relative Humidity: 83%
Pressure (altimeter): 30.00 in. Hg (1016 hPa)
ob: NTAA 301400Z 12003KT 9999 FEW023 23/20 Q1016 NOSIG
cycle: 14

Station Type Date Time Source
NTAA TAF 2022/06/30 12:05 UTC NOAA

TAF NTAA 301100Z 3012/0118 VRB05KT 9999 FEW023
TEMPO 3021/0103 22010KT

Example: see airport list